createdAt,value
2018-01-12T00:02:11.684Z,40.25
2018-01-12T00:04:39.805Z,35.75
2018-01-12T00:07:08.725Z,40.73
2018-01-12T00:09:37.597Z,41.88
2018-01-12T00:12:06.529Z,41.92
2018-01-12T00:14:34.657Z,41.05
2018-01-12T00:17:02.818Z,34.47
2018-01-12T00:19:31.292Z,39.57
2018-01-12T00:21:59.423Z,31.58
2018-01-12T00:24:27.587Z,38.30
2018-01-12T00:26:55.728Z,38.90
2018-01-12T00:29:24.620Z,35.03
2018-01-12T00:31:52.772Z,41.53
2018-01-12T00:34:20.914Z,41.80
2018-01-12T00:36:49.050Z,38.53
2018-01-12T00:39:17.227Z,35.40
2018-01-12T00:41:45.348Z,38.10
2018-01-12T00:44:13.506Z,33.20
2018-01-12T00:46:41.613Z,38.77
2018-01-12T00:49:10.522Z,38.87
2018-01-12T00:51:38.664Z,32.28
2018-01-12T00:54:06.804Z,29.27
2018-01-12T00:56:34.929Z,34.77
2018-01-12T00:59:03.064Z,32.70
2018-01-12T01:01:31.205Z,34.10
2018-01-12T01:03:59.345Z,34.33
2018-01-12T01:06:27.496Z,36.63
2018-01-12T01:08:56.405Z,35.60
2018-01-12T01:11:24.543Z,30.57
2018-01-12T01:13:52.702Z,39.83
2018-01-12T01:16:20.824Z,34.17
2018-01-12T01:18:48.955Z,35.63
2018-01-12T01:21:17.110Z,35.87
2018-01-12T01:23:45.249Z,31.47
2018-01-12T01:26:13.369Z,34.30
2018-01-12T01:28:41.545Z,32.63
2018-01-12T01:31:09.670Z,33.47
2018-01-12T01:33:38.261Z,42.47
2018-01-12T01:36:06.372Z,33.30
2018-01-12T01:38:34.513Z,33.13
2018-01-12T01:41:02.724Z,38.90
2018-01-12T01:43:30.882Z,38.37
2018-01-12T01:45:59.014Z,36.83
2018-01-12T01:48:38.909Z,34.03
2018-01-12T01:51:07.034Z,36.57
2018-01-12T01:53:35.176Z,37.05
2018-01-12T01:56:04.092Z,35.10
2018-01-12T01:58:32.221Z,42.13
2018-01-12T02:01:01.453Z,38.65
2018-01-12T02:03:29.849Z,43.50
2018-01-12T02:05:58.041Z,48.38
2018-01-12T02:08:26.293Z,57.13
2018-01-12T02:10:54.437Z,49.92
2018-01-12T02:13:22.629Z,48.65
2018-01-12T02:15:50.905Z,51.13
2018-01-12T02:18:19.166Z,50.85
2018-01-12T02:20:47.370Z,47.38
2018-01-12T02:23:15.549Z,52.22
2018-01-12T02:25:43.966Z,42.72
2018-01-12T02:28:13.652Z,62.05
2018-01-12T02:30:42.672Z,55.35
2018-01-12T02:33:11.765Z,46.70
2018-01-12T02:35:39.959Z,61.47
2018-01-12T02:38:08.093Z,62.55
2018-01-12T02:40:36.520Z,57.67
2018-01-12T02:43:04.809Z,60.65
2018-01-12T02:45:33.057Z,54.00
2018-01-12T02:48:01.268Z,49.70
2018-01-12T02:50:29.631Z,49.55
2018-01-12T02:52:57.781Z,60.92
2018-01-12T02:55:26.100Z,58.67
2018-01-12T02:57:54.356Z,60.83
2018-01-12T03:00:22.740Z,54.50
2018-01-12T03:02:51.657Z,67.05
2018-01-12T03:05:20.601Z,86.60
2018-01-12T03:07:48.925Z,67.10
2018-01-12T03:10:17.079Z,68.97
2018-01-12T03:12:45.242Z,76.70
2018-01-12T03:15:13.594Z,64.85
2018-01-12T03:17:42.988Z,57.62
2018-01-12T03:20:11.346Z,49.35
2018-01-12T03:22:40.363Z,73.85
2018-01-12T03:25:08.616Z,80.00
2018-01-12T03:27:36.805Z,64.50
2018-01-12T03:30:04.970Z,71.55
2018-01-12T03:32:33.139Z,53.13
2018-01-12T03:35:01.274Z,67.28
2018-01-12T03:37:29.420Z,56.13
2018-01-12T03:39:57.625Z,57.95
2018-01-12T03:42:25.898Z,59.78
2018-01-12T03:44:54.128Z,72.00
2018-01-12T03:47:22.287Z,58.30
2018-01-12T03:49:50.453Z,51.70
2018-01-12T03:52:18.724Z,45.53
2018-01-12T03:54:47.777Z,76.43
2018-01-12T03:57:16.028Z,66.37
2018-01-12T03:59:44.250Z,62.28
2018-01-12T04:02:14.282Z,80.68
2018-01-12T04:04:42.690Z,78.70
2018-01-12T04:07:11.136Z,63.20
2018-01-12T04:09:39.427Z,77.93
2018-01-12T04:12:07.725Z,81.20
2018-01-12T04:14:37.162Z,68.75
2018-01-12T04:17:06.458Z,101.57
2018-01-12T04:19:34.676Z,56.08
2018-01-12T04:22:03.813Z,111.85
2018-01-12T04:24:32.024Z,57.25
2018-01-12T04:27:00.256Z,92.72
2018-01-12T04:29:28.395Z,96.37
2018-01-12T04:31:56.700Z,77.68
2018-01-12T04:34:25.730Z,66.55
2018-01-12T04:36:54.714Z,57.30
2018-01-12T04:39:23.171Z,69.97
2018-01-12T04:41:51.748Z,53.00
2018-01-12T04:44:19.969Z,97.75
2018-01-12T04:46:48.104Z,83.50
2018-01-12T04:49:16.237Z,84.90
2018-01-12T04:51:44.376Z,66.93
2018-01-12T04:54:12.505Z,101.22
2018-01-12T04:56:40.651Z,100.32
2018-01-12T04:59:08.787Z,107.72
2018-01-12T05:01:36.962Z,78.45
2018-01-12T05:04:05.087Z,71.45
2018-01-12T05:06:33.263Z,73.47
2018-01-12T05:09:01.409Z,62.47
2018-01-12T05:11:29.560Z,64.05
2018-01-12T05:13:57.709Z,80.70
2018-01-12T05:16:26.740Z,55.33
2018-01-12T05:18:54.902Z,71.20
2018-01-12T05:21:23.038Z,67.97
2018-01-12T05:23:51.941Z,53.97
2018-01-12T05:26:20.057Z,77.10
2018-01-12T05:28:48.211Z,53.78
2018-01-12T05:31:16.507Z,59.33
2018-01-12T05:33:44.650Z,49.33
2018-01-12T05:36:12.794Z,64.55
2018-01-12T05:38:41.698Z,43.33
2018-01-12T05:41:09.844Z,44.17
2018-01-12T05:43:38.764Z,44.47
2018-01-12T05:46:06.930Z,47.03
2018-01-12T05:48:35.086Z,39.15
2018-01-12T05:51:03.241Z,51.50
2018-01-12T05:53:31.375Z,46.17
2018-01-12T05:55:59.517Z,41.72
2018-01-12T05:58:27.704Z,56.20
2018-01-12T06:01:07.589Z,46.67
2018-01-12T06:17:05.366Z,42.58
2018-01-12T06:19:34.266Z,46.67
2018-01-12T06:22:02.418Z,54.17
2018-01-12T06:24:30.552Z,61.55
2018-01-12T06:26:58.770Z,45.38
2018-01-12T06:29:27.715Z,47.72
2018-01-12T06:31:56.646Z,63.83
2018-01-12T06:34:24.806Z,46.58
2018-01-12T06:36:52.966Z,46.90
2018-01-12T06:39:21.950Z,44.72
2018-01-12T06:41:50.080Z,41.50
2018-01-12T06:44:18.221Z,38.38
2018-01-12T06:46:47.195Z,40.45
2018-01-12T06:49:15.392Z,34.85
2018-01-12T06:51:44.328Z,50.75
2018-01-12T06:54:12.539Z,40.63
2018-01-12T06:56:40.673Z,37.03
2018-01-12T06:59:08.846Z,35.90
2018-01-12T07:01:37.006Z,34.58
2018-01-12T07:04:05.161Z,42.10
2018-01-12T07:06:33.301Z,44.88
2018-01-12T07:09:01.474Z,54.22
2018-01-12T07:11:29.627Z,45.00
2018-01-12T07:13:58.185Z,47.03
2018-01-12T07:16:27.089Z,38.95
2018-01-12T07:18:55.307Z,39.47
2018-01-12T07:21:35.858Z,38.22
2018-01-12T07:24:04.789Z,33.75
2018-01-12T07:26:32.973Z,32.97
2018-01-12T07:29:01.866Z,34.05
2018-01-12T07:31:30.041Z,35.30
2018-01-12T07:33:58.171Z,37.42
2018-01-12T07:36:26.391Z,40.53
2018-01-12T07:38:54.549Z,34.40
2018-01-12T07:41:22.718Z,38.80
2018-01-12T07:43:50.982Z,34.47
2018-01-12T07:46:19.108Z,34.83
2018-01-12T07:48:47.294Z,33.58
2018-01-12T07:51:15.430Z,38.83
2018-01-12T07:53:43.581Z,43.20
2018-01-12T07:56:11.717Z,44.22
2018-01-12T07:58:39.865Z,32.08
2018-01-12T08:01:14.442Z,40.53
2018-01-12T08:03:42.582Z,32.30
2018-01-12T08:06:10.704Z,39.28
2018-01-12T08:08:38.864Z,36.15
2018-01-12T08:11:07.004Z,38.92
2018-01-12T08:13:35.144Z,40.10
2018-01-12T08:16:04.082Z,41.05
2018-01-12T08:18:32.189Z,37.85
2018-01-12T08:21:01.120Z,37.40
2018-01-12T08:23:29.260Z,35.65
2018-01-12T08:25:58.237Z,36.60
2018-01-12T08:28:26.404Z,34.92
2018-01-12T08:30:54.562Z,34.38
2018-01-12T08:33:22.682Z,41.75
2018-01-12T08:35:50.849Z,39.10
2018-01-12T08:38:19.750Z,36.78
2018-01-12T08:40:47.909Z,33.30
2018-01-12T08:43:16.796Z,41.35
2018-01-12T08:45:44.956Z,34.92
2018-01-12T08:48:13.877Z,33.22
2018-01-12T08:50:42.026Z,35.67
2018-01-12T08:53:10.976Z,37.28
2018-01-12T08:55:39.106Z,35.65
2018-01-12T08:58:07.317Z,35.45
2018-01-12T09:00:35.454Z,34.03
2018-01-12T09:03:03.595Z,36.88
2018-01-12T09:05:32.489Z,46.47
2018-01-12T09:08:01.423Z,41.37
2018-01-12T09:10:29.550Z,37.63
2018-01-12T09:12:57.716Z,36.08
2018-01-12T09:15:29.640Z,40.87
2018-01-12T09:18:00.738Z,43.55
2018-01-12T09:20:33.821Z,40.97
2018-01-12T09:36:33.374Z,40.80
2018-01-12T09:39:03.915Z,38.28
2018-01-12T09:41:32.013Z,42.67
2018-01-12T09:44:00.162Z,36.17
2018-01-12T09:46:29.102Z,29.23
2018-01-12T09:48:57.223Z,33.22
2018-01-12T09:51:26.120Z,27.30
2018-01-12T09:53:54.298Z,29.73
2018-01-12T09:56:22.430Z,36.25
2018-01-12T09:58:51.339Z,27.23
2018-01-12T10:01:25.560Z,27.05
2018-01-12T10:03:54.470Z,27.27
2018-01-12T10:06:22.600Z,33.22
2018-01-12T10:08:59.481Z,28.05
2018-01-12T10:11:27.612Z,31.10
2018-01-12T10:13:55.748Z,23.50
2018-01-12T10:16:23.888Z,24.70
2018-01-12T10:18:53.684Z,26.07
2018-01-12T10:21:33.493Z,19.67
2018-01-12T10:24:01.620Z,21.77
2018-01-12T10:26:29.761Z,20.00
2018-01-12T10:29:06.596Z,21.90
2018-01-12T10:31:46.387Z,22.48
2018-01-12T10:34:40.113Z,21.20
2018-01-12T10:37:08.257Z,18.10
2018-01-12T10:39:36.409Z,19.80
2018-01-12T10:42:05.369Z,22.70
2018-01-12T10:44:33.521Z,17.33
2018-01-12T10:47:16.384Z,17.67
2018-01-12T10:49:56.309Z,21.10
2018-01-12T10:52:36.272Z,17.25
2018-01-12T10:55:04.406Z,17.48
2018-01-12T10:57:32.562Z,18.00
2018-01-12T11:00:01.052Z,20.93
2018-01-12T11:02:29.767Z,21.20
2018-01-12T11:04:57.880Z,19.83
2018-01-12T11:07:26.044Z,23.80
2018-01-12T11:09:54.168Z,20.50
2018-01-12T11:12:22.320Z,20.70
2018-01-12T11:14:51.414Z,18.77
2018-01-12T11:17:20.324Z,21.40
2018-01-12T11:19:48.472Z,22.57
2018-01-12T11:22:16.608Z,21.00
2018-01-12T11:24:44.766Z,21.80
2018-01-12T11:27:12.892Z,27.47
2018-01-12T11:29:41.387Z,22.63
2018-01-12T11:32:09.508Z,21.50
2018-01-12T11:34:37.643Z,29.30
2018-01-12T11:37:06.138Z,22.60
2018-01-12T11:39:34.265Z,19.80
2018-01-12T11:42:02.743Z,22.17
2018-01-12T11:44:30.872Z,17.23
2018-01-12T11:46:59.001Z,20.17
2018-01-12T11:49:27.161Z,20.43
2018-01-12T11:51:55.318Z,19.47
2018-01-12T11:54:24.238Z,17.00
2018-01-12T11:56:52.368Z,18.47
2018-01-12T11:59:21.323Z,16.43
2018-01-12T12:01:50.349Z,19.37
2018-01-12T12:04:18.494Z,20.40
2018-01-12T12:06:46.640Z,19.60
2018-01-12T12:09:14.752Z,17.13
2018-01-12T12:11:42.893Z,19.50
2018-01-12T12:14:11.108Z,19.00
2018-01-12T12:16:39.989Z,19.00
2018-01-12T12:19:08.907Z,22.30
2018-01-12T12:21:37.033Z,22.53
2018-01-12T12:24:05.179Z,20.73
2018-01-12T12:26:33.362Z,22.47
2018-01-12T12:29:01.514Z,19.43
2018-01-12T12:31:29.686Z,22.00
2018-01-12T12:33:57.850Z,21.80
2018-01-12T12:36:25.990Z,20.40
2018-01-12T12:38:54.901Z,21.07
2018-01-12T12:41:23.032Z,21.10
2018-01-12T12:43:51.973Z,16.60
2018-01-12T12:46:20.112Z,16.90
2018-01-12T12:48:48.993Z,18.67
2018-01-12T12:51:17.929Z,20.47
2018-01-12T12:53:46.065Z,22.40
2018-01-12T12:56:15.005Z,22.73
2018-01-12T12:58:43.141Z,18.73
2018-01-12T13:01:11.288Z,20.13
2018-01-12T13:03:40.186Z,33.40
2018-01-12T13:06:08.336Z,24.97
2018-01-12T13:08:36.480Z,20.90
2018-01-12T13:11:04.640Z,22.50
2018-01-12T13:13:32.764Z,20.87
2018-01-12T13:16:00.888Z,20.50
2018-01-12T13:18:29.809Z,19.00
2018-01-12T13:20:58.044Z,20.97
2018-01-12T13:23:26.169Z,19.87
2018-01-12T13:25:55.104Z,20.27
2018-01-12T13:28:23.265Z,18.97
2018-01-12T13:30:51.405Z,19.90
2018-01-12T13:33:20.304Z,20.60
2018-01-12T13:35:48.442Z,26.90
2018-01-12T13:38:16.589Z,21.17
2018-01-12T13:40:44.730Z,22.97
2018-01-12T13:43:12.860Z,23.37
2018-01-12T13:45:41.774Z,25.43
2018-01-12T13:48:10.677Z,24.60
2018-01-12T13:50:38.857Z,20.83
2018-01-12T13:53:07.749Z,24.10
2018-01-12T13:55:35.906Z,26.03
2018-01-12T13:58:04.048Z,25.17
2018-01-12T14:00:32.238Z,21.90
2018-01-12T14:03:00.460Z,24.77
2018-01-12T14:05:28.605Z,22.27
2018-01-12T14:07:57.668Z,22.60
2018-01-12T14:10:26.575Z,25.97
2018-01-12T14:12:55.510Z,27.33
2018-01-12T14:15:23.632Z,23.90
2018-01-12T14:17:51.769Z,20.13
2018-01-12T14:20:19.919Z,31.53
2018-01-12T14:22:48.052Z,25.37
2018-01-12T14:25:16.195Z,22.83
2018-01-12T14:27:44.321Z,22.93
2018-01-12T14:30:12.469Z,20.33
2018-01-12T14:32:40.593Z,21.60
2018-01-12T14:35:08.753Z,20.60
2018-01-12T14:37:36.881Z,21.53
2018-01-12T14:40:05.026Z,23.87
2018-01-12T14:42:33.149Z,27.40
2018-01-12T14:45:01.277Z,25.67
2018-01-12T14:47:30.185Z,22.83
2018-01-12T14:49:58.318Z,24.23
2018-01-12T14:52:26.469Z,23.03
2018-01-12T14:54:54.714Z,24.63
2018-01-12T14:57:22.829Z,21.17
2018-01-12T14:59:51.021Z,21.03
2018-01-12T15:02:19.148Z,21.67
2018-01-12T15:04:47.272Z,21.03
2018-01-12T15:07:15.452Z,20.60
2018-01-12T15:09:43.697Z,22.00
2018-01-12T15:12:11.863Z,19.67
2018-01-12T15:14:39.989Z,25.17
2018-01-12T15:17:08.165Z,20.63
2018-01-12T15:19:36.284Z,24.93
2018-01-12T15:22:04.427Z,22.30
2018-01-12T15:24:32.805Z,27.67
2018-01-12T15:27:00.968Z,25.73
2018-01-12T15:29:29.096Z,23.47
2018-01-12T15:31:57.992Z,24.70
2018-01-12T15:34:26.170Z,21.80
2018-01-12T15:36:54.298Z,20.10
2018-01-12T15:39:22.448Z,23.60
2018-01-12T15:41:50.585Z,22.20
2018-01-12T15:44:19.509Z,25.50
2018-01-12T15:46:47.631Z,21.40
2018-01-12T15:49:16.560Z,30.50
2018-01-12T15:51:44.762Z,25.40
2018-01-12T15:54:13.102Z,24.67
2018-01-12T15:56:41.224Z,25.90
2018-01-12T15:59:09.456Z,30.50
2018-01-12T16:01:37.610Z,27.20
2018-01-12T16:04:05.753Z,27.07
2018-01-12T16:06:34.660Z,33.67
2018-01-12T16:09:03.148Z,31.73
2018-01-12T16:11:32.037Z,33.53
2018-01-12T16:14:00.165Z,34.00
2018-01-12T16:16:29.108Z,34.45
2018-01-12T16:18:57.297Z,32.85
2018-01-12T16:21:25.472Z,28.92
2018-01-12T16:23:53.608Z,29.45
2018-01-12T16:26:21.774Z,36.53
2018-01-12T16:28:49.911Z,31.77
2018-01-12T16:31:18.061Z,30.53
2018-01-12T16:33:46.210Z,38.40
2018-01-12T16:36:14.412Z,31.92
2018-01-12T16:38:42.600Z,33.83
2018-01-12T16:41:10.753Z,38.35
2018-01-12T16:43:38.928Z,43.10
2018-01-12T16:46:07.087Z,38.30
2018-01-12T16:48:35.220Z,39.63
2018-01-12T16:51:03.394Z,41.58
2018-01-12T16:53:31.546Z,40.30
2018-01-12T16:56:00.514Z,36.47
2018-01-12T16:58:28.679Z,31.47
2018-01-12T17:00:56.777Z,27.30
2018-01-12T17:03:25.721Z,30.07
2018-01-12T17:05:53.872Z,26.30
2018-01-12T17:08:22.047Z,27.37
2018-01-12T17:10:50.177Z,27.40
2018-01-12T17:13:19.094Z,27.97
2018-01-12T17:15:47.224Z,26.83
2018-01-12T17:18:15.365Z,27.43
2018-01-12T17:20:43.497Z,30.40
2018-01-12T17:23:11.652Z,29.47
2018-01-12T17:25:39.814Z,27.73
2018-01-12T17:28:07.956Z,28.20
2018-01-12T17:30:36.117Z,29.73
2018-01-12T17:33:04.262Z,36.70
2018-01-12T17:35:33.173Z,41.77
2018-01-12T17:38:01.300Z,35.27
2018-01-12T17:40:30.224Z,35.43
2018-01-12T17:42:58.388Z,32.63
2018-01-12T17:45:27.280Z,25.83
2018-01-12T17:47:56.335Z,31.10
2018-01-12T17:50:32.281Z,29.80
2018-01-12T17:53:00.402Z,29.67
2018-01-12T17:55:28.543Z,26.83
2018-01-12T17:57:56.668Z,31.47
2018-01-12T18:00:24.809Z,31.67
2018-01-12T18:02:53.573Z,33.03
2018-01-12T18:05:21.696Z,30.80
2018-01-12T18:07:49.835Z,31.07
2018-01-12T18:10:18.253Z,30.77
2018-01-12T18:12:46.412Z,31.63
2018-01-12T18:15:16.046Z,33.20
2018-01-12T18:17:44.352Z,40.30
2018-01-12T18:20:12.611Z,30.03
2018-01-12T18:22:40.829Z,34.53
2018-01-12T18:25:09.018Z,29.50
2018-01-12T18:27:37.167Z,29.60
2018-01-12T18:30:05.401Z,32.30
2018-01-12T18:32:34.304Z,35.03
2018-01-12T18:35:02.432Z,31.00
2018-01-12T18:37:30.654Z,92.43
2018-01-12T18:39:58.798Z,34.27
2018-01-12T18:42:26.932Z,33.57
2018-01-12T18:44:55.837Z,32.80
2018-01-12T18:47:23.972Z,32.40
2018-01-12T18:49:52.113Z,42.20
2018-01-12T18:52:20.398Z,29.87
2018-01-12T18:54:49.340Z,32.97
2018-01-12T18:57:17.503Z,31.70
2018-01-12T18:59:45.761Z,34.33
2018-01-12T19:02:14.073Z,36.53
2018-01-12T19:04:42.220Z,39.27
2018-01-12T19:07:10.455Z,38.63
2018-01-12T19:09:39.179Z,39.77
2018-01-12T19:12:07.281Z,38.40
2018-01-12T19:14:35.424Z,42.00
2018-01-12T19:17:03.553Z,39.60
2018-01-12T19:19:32.481Z,41.17
2018-01-12T19:22:00.690Z,37.87
2018-01-12T19:24:28.825Z,39.95
2018-01-12T19:26:56.965Z,37.20
2018-01-12T19:29:25.203Z,34.97
2018-01-12T19:31:53.385Z,29.70
2018-01-12T19:34:23.066Z,32.50
2018-01-12T19:36:51.248Z,44.13
2018-01-12T19:39:19.448Z,41.50
2018-01-12T19:41:47.585Z,38.10
2018-01-12T19:44:15.754Z,38.17
2018-01-12T19:46:43.885Z,36.20
2018-01-12T19:49:12.025Z,39.72
2018-01-12T19:51:40.520Z,34.00
2018-01-12T19:54:09.462Z,39.72
2018-01-12T19:56:37.661Z,40.03
2018-01-12T19:59:05.816Z,40.17
2018-01-12T20:01:34.057Z,39.15
2018-01-12T20:04:02.176Z,36.95
2018-01-12T20:06:30.365Z,36.00
2018-01-12T20:08:59.269Z,37.38
2018-01-12T20:11:27.414Z,33.47
2018-01-12T20:13:55.574Z,39.45
2018-01-12T20:16:23.710Z,36.00
2018-01-12T20:18:52.086Z,38.55
2018-01-12T20:21:20.437Z,38.10
2018-01-12T20:23:48.615Z,39.78
2018-01-12T20:26:17.520Z,35.15
2018-01-12T20:28:45.705Z,29.12
2018-01-12T20:31:13.918Z,34.05
2018-01-12T20:33:42.809Z,32.63
2018-01-12T20:36:10.966Z,33.50
2018-01-12T20:38:39.097Z,33.63
2018-01-12T20:41:07.351Z,36.40
2018-01-12T20:43:35.516Z,34.13
2018-01-12T20:46:04.431Z,35.90
2018-01-12T20:48:32.584Z,29.67
2018-01-12T20:51:01.522Z,36.38
2018-01-12T20:53:29.649Z,33.90
2018-01-12T20:55:57.901Z,39.33
2018-01-12T20:58:26.005Z,34.88
2018-01-12T21:00:54.270Z,27.57
2018-01-12T21:03:23.165Z,31.10
2018-01-12T21:05:51.648Z,38.90
2018-01-12T21:08:19.822Z,36.38
2018-01-12T21:10:47.974Z,33.80
2018-01-12T21:13:16.874Z,29.67
2018-01-12T21:15:44.989Z,40.30
2018-01-12T21:18:13.129Z,48.37
2018-01-12T21:20:41.249Z,46.30
2018-01-12T21:23:09.377Z,44.00
2018-01-12T21:25:37.534Z,56.60
2018-01-12T21:28:05.672Z,47.42
2018-01-12T21:30:34.591Z,45.50
2018-01-12T21:33:02.733Z,47.30
2018-01-12T21:35:30.948Z,47.70
2018-01-12T21:37:59.335Z,54.03
2018-01-12T21:40:27.459Z,25.97
2018-01-12T21:42:56.385Z,34.72
2018-01-12T21:45:24.651Z,45.20
2018-01-12T21:47:52.760Z,30.87
2018-01-12T21:50:21.145Z,34.20
2018-01-12T21:52:49.283Z,40.70
2018-01-12T21:55:17.423Z,35.58
2018-01-12T21:57:46.399Z,40.65
2018-01-12T22:00:14.517Z,46.20
2018-01-12T22:02:42.715Z,29.35
2018-01-12T22:05:11.598Z,26.33
2018-01-12T22:07:39.787Z,35.15
2018-01-12T22:10:07.900Z,26.10
2018-01-12T22:12:36.844Z,25.15
2018-01-12T22:15:04.959Z,26.83
2018-01-12T22:17:33.097Z,28.33
2018-01-12T22:20:02.073Z,25.42
2018-01-12T22:22:30.292Z,28.42
2018-01-12T22:24:59.192Z,28.98
2018-01-12T22:27:27.319Z,26.65
2018-01-12T22:29:55.495Z,25.70
2018-01-12T22:32:23.620Z,25.90
2018-01-12T22:34:51.798Z,23.05
2018-01-12T22:37:20.712Z,27.83
2018-01-12T22:39:48.846Z,30.37
2018-01-12T22:42:17.785Z,24.73
2018-01-12T22:44:45.950Z,24.45
2018-01-12T22:47:14.107Z,29.33
2018-01-12T22:49:43.303Z,33.33
2018-01-12T22:52:11.498Z,32.30
2018-01-12T22:54:39.671Z,30.30
2018-01-12T22:57:07.779Z,29.00
2018-01-12T22:59:36.713Z,30.62
2018-01-12T23:02:06.942Z,28.80
2018-01-12T23:04:35.086Z,24.77
2018-01-12T23:07:03.309Z,32.55
2018-01-12T23:09:31.481Z,26.83
2018-01-12T23:11:59.613Z,23.52
2018-01-12T23:14:27.732Z,31.50
2018-01-12T23:16:56.650Z,29.02
2018-01-12T23:19:24.942Z,29.42
2018-01-12T23:21:53.084Z,32.55
2018-01-12T23:24:21.235Z,35.50
2018-01-12T23:26:49.389Z,28.05
2018-01-12T23:29:17.500Z,30.52
2018-01-12T23:31:46.506Z,28.90
2018-01-12T23:34:15.446Z,27.10
2018-01-12T23:36:43.584Z,25.25
2018-01-12T23:39:11.720Z,31.95
2018-01-12T23:41:39.860Z,30.48
2018-01-12T23:44:08.001Z,32.08
2018-01-12T23:46:36.191Z,29.12
2018-01-12T23:49:04.315Z,32.58
2018-01-12T23:51:32.465Z,27.73
2018-01-12T23:54:00.615Z,26.75
2018-01-12T23:56:28.737Z,24.55
2018-01-12T23:58:57.648Z,25.90
